Time;durP1;ratioP1;P1;durP2;ratioP2;P2;SDS_P1;SDS_P2;PMS_P1;PMS_P2;Temp;Humidity;BMP_temperature;BMP_pressure;BME280_temperature;BME280_humidity;BME280_pressure;Samples;Min_cycle;Max_cycle;Signal;HPM_P1;HPM_P2
2023/01/28 00:01:18;;;;;;;39.67;16.65;;;-0.40;99.90;;;;;;5077411;28;20040;-57
2023/01/28 00:03:49;;;;;;;39.15;16.88;;;-0.40;99.90;;;;;;5073987;28;20045;-54
2023/01/28 00:06:17;;;;;;;35.00;15.63;;;-0.40;99.90;;;;;;5077508;28;20039;-56
2023/01/28 00:08:44;;;;;;;34.28;15.45;;;-0.40;99.90;;;;;;5075329;28;20542;-53
2023/01/28 00:11:12;;;;;;;35.00;14.50;;;-0.40;99.90;;;;;;5077168;28;20037;-55
2023/01/28 00:13:40;;;;;;;35.90;15.32;;;-0.40;99.90;;;;;;5073686;28;20048;-56
2023/01/28 00:16:08;;;;;;;30.90;14.73;;;-0.40;99.90;;;;;;5076577;28;20043;-55
2023/01/28 00:18:36;;;;;;;33.35;14.80;;;-0.50;99.90;;;;;;5076068;28;20090;-57
2023/01/28 00:21:07;;;;;;;;;;;-0.40;99.90;;;;;;5076247;28;20098;-57
2023/01/28 00:23:35;;;;;;;29.67;13.77;;;-0.40;99.90;;;;;;5074194;28;19975;-54
2023/01/28 00:26:05;;;;;;;33.13;14.23;;;-0.40;99.90;;;;;;5075698;28;20059;-56
2023/01/28 00:28:32;;;;;;;32.05;14.60;;;-0.40;99.90;;;;;;5068553;28;20102;-55
2023/01/28 00:31:10;;;;;;;38.55;16.70;;;-0.40;99.90;;;;;;5073731;28;20033;-54
2023/01/28 00:33:36;;;;;;;25.58;11.57;;;-0.50;99.90;;;;;;5073602;28;20072;-56
2023/01/28 00:36:06;;;;;;;38.45;16.05;;;-0.50;99.90;;;;;;5058717;28;20044;-56
2023/01/28 00:38:33;;;;;;;34.50;15.02;;;-0.50;99.90;;;;;;5078003;28;20048;-57
2023/01/28 00:41:20;;;;;;;;;;;-0.50;99.90;;;;;;5057843;28;20456;-56
2023/01/28 00:43:50;;;;;;;35.58;15.13;;;-0.50;99.90;;;;;;5047464;28;19985;-56
2023/01/28 00:46:17;;;;;;;37.58;16.38;;;-0.50;99.90;;;;;;5076598;28;20492;-56
2023/01/28 00:48:44;;;;;;;;;;;-0.50;99.90;;;;;;5075221;28;20043;-55
2023/01/28 00:51:15;;;;;;;34.80;15.40;;;-0.50;99.90;;;;;;5063110;28;19920;-54
2023/01/28 00:53:42;;;;;;;34.45;14.95;;;-0.50;99.90;;;;;;5071217;28;20554;-57
2023/01/28 00:56:13;;;;;;;39.10;16.15;;;-0.50;99.90;;;;;;5058823;28;20052;-57
2023/01/28 00:58:40;;;;;;;36.35;16.23;;;-0.50;99.90;;;;;;5069876;28;20105;-55
2023/01/28 01:01:18;;;;;;;40.38;17.50;;;-0.60;99.90;;;;;;5076609;28;20085;-54
2023/01/28 01:03:46;;;;;;;38.53;17.10;;;-0.60;99.90;;;;;;5073100;28;20493;-56
2023/01/28 01:06:15;;;;;;;43.28;17.77;;;-0.50;99.90;;;;;;5074562;28;20440;-54
2023/01/28 01:08:49;;;;;;;37.83;16.92;;;-0.60;99.90;;;;;;5054076;28;20150;-55
2023/01/28 01:11:17;;;;;;;40.40;18.00;;;-0.60;99.90;;;;;;5062234;28;20412;-56
2023/01/28 01:13:43;;;;;;;46.60;18.10;;;-0.60;99.90;;;;;;5073294;28;20044;-56
2023/01/28 01:16:14;;;;;;;42.92;18.30;;;-0.60;99.90;;;;;;5056059;28;20036;-55
2023/01/28 01:18:42;;;;;;;47.78;18.95;;;-0.60;99.90;;;;;;5055316;28;20037;-57
2023/01/28 01:21:11;;;;;;;40.05;17.38;;;-0.60;99.90;;;;;;5075084;28;20727;-55
2023/01/28 01:23:38;;;;;;;38.45;17.42;;;-0.60;99.90;;;;;;5072779;28;20045;-55
2023/01/28 01:26:06;;;;;;;;;;;-0.60;99.90;;;;;;5076645;28;20041;-56
2023/01/28 01:28:33;;;;;;;44.83;19.15;;;-0.60;99.90;;;;;;5073140;28;20339;-56
2023/01/28 01:31:02;;;;;;;43.15;17.55;;;-0.50;99.90;;;;;;5055958;28;20385;-56
2023/01/28 01:33:30;;;;;;;38.65;16.73;;;-0.60;99.90;;;;;;5069371;28;20056;-56
2023/01/28 01:35:58;;;;;;;42.38;16.75;;;-0.60;99.90;;;;;;5058746;28;20086;-55
2023/01/28 01:38:26;;;;;;;34.80;16.17;;;-0.60;99.90;;;;;;5075473;28;20040;-56
2023/01/28 01:41:00;;;;;;;35.90;15.65;;;-0.50;99.90;;;;;;5079980;28;20094;-55
2023/01/28 01:43:50;;;;;;;38.85;16.38;;;-0.50;99.90;;;;;;5065849;28;20071;-56
2023/01/28 01:46:37;;;;;;;33.28;14.57;;;-0.50;99.90;;;;;;5090967;28;20519;-56
2023/01/28 01:49:14;;;;;;;35.50;15.70;;;-0.60;99.90;;;;;;5082947;28;20500;-57
2023/01/28 01:51:42;;;;;;;41.65;16.23;;;-0.50;99.90;;;;;;5089169;28;20044;-54
2023/01/28 01:54:09;;;;;;;33.92;15.38;;;-0.50;99.90;;;;;;5085319;28;20052;-56
2023/01/28 01:56:41;;;;;;;39.05;15.35;;;-0.50;99.90;;;;;;5083994;28;20048;-56
2023/01/28 01:59:16;;;;;;;28.08;13.35;;;-0.50;99.90;;;;;;5082575;28;20519;-55
2023/01/28 02:01:47;;;;;;;36.30;16.08;;;-0.50;99.90;;;;;;5085491;28;20565;-52
2023/01/28 02:04:29;;;;;;;36.22;17.27;;;-0.50;99.90;;;;;;5092233;28;20064;-56
2023/01/28 02:06:59;;;;;;;40.00;19.10;;;-0.50;99.90;;;;;;5082889;28;20105;-56
2023/01/28 02:09:29;;;;;;;41.85;18.60;;;-0.50;99.90;;;;;;5077404;28;20058;-55
2023/01/28 02:12:02;;;;;;;44.38;20.23;;;-0.50;99.90;;;;;;5089011;28;20560;-53
2023/01/28 02:14:31;;;;;;;45.85;19.13;;;-0.60;99.90;;;;;;5082446;28;20489;-54
2023/01/28 02:17:00;;;;;;;44.65;18.40;;;-0.60;99.90;;;;;;5083260;28;20044;-52
2023/01/28 02:19:36;;;;;;;40.28;18.67;;;-0.60;99.90;;;;;;5076468;22;20045;-60
2023/01/28 02:22:20;;;;;;;45.40;19.58;;;-0.70;99.90;;;;;;5027690;28;20581;-60
2023/01/28 02:25:14;;;;;;;43.80;19.77;;;-0.60;99.90;;;;;;5007649;28;20121;-60
2023/01/28 02:28:08;;;;;;;45.60;19.90;;;-0.60;99.90;;;;;;5016679;28;20128;-63
2023/01/28 02:31:05;;;;;;;46.75;20.83;;;-0.60;99.90;;;;;;5009992;28;20050;-63
2023/01/28 02:33:51;;;;;;;48.00;20.88;;;-0.60;99.90;;;;;;5024816;28;20057;-60
2023/01/28 02:36:42;;;;;;;45.67;19.35;;;-0.60;99.90;;;;;;5033350;28;20108;-60
2023/01/28 02:39:32;;;;;;;43.28;19.45;;;-0.60;99.90;;;;;;5011156;28;20045;-61
2023/01/28 02:42:08;;;;;;;48.13;20.45;;;-0.60;99.90;;;;;;5028482;28;20042;-62
2023/01/28 02:44:35;;;;;;;48.35;20.30;;;-0.60;99.90;;;;;;5025092;28;20498;-61
2023/01/28 02:49:53;;;;;;;49.95;20.13;;;-0.60;99.90;;;;;;5028651;28;20045;-60
2023/01/28 02:55:41;;;;;;;55.97;22.08;;;-0.60;99.90;;;;;;5023091;28;20046;-62
2023/01/28 02:58:38;;;;;;;50.17;21.65;;;-0.70;99.90;;;;;;5026322;28;20052;-62
2023/01/28 03:01:21;;;;;;;47.03;20.48;;;-0.70;99.90;;;;;;5030375;28;20056;-61
2023/01/28 03:04:00;;;;;;;45.45;19.88;;;-0.60;99.90;;;;;;5031751;28;20068;-62
2023/01/28 03:06:54;;;;;;;47.25;20.65;;;-0.60;99.90;;;;;;5039626;28;20037;-62
2023/01/28 03:09:25;;;;;;;47.38;20.17;;;-0.70;99.90;;;;;;4994968;28;20056;-62
2023/01/28 03:38:21;;;;;;;;;;;-0.60;99.90;;;;;;5013864;28;20564;-60
2023/01/28 03:40:55;;;;;;;41.65;19.50;;;-0.60;99.90;;;;;;5018303;28;19925;-60
2023/01/28 03:43:23;;;;;;;49.15;21.35;;;-0.60;99.90;;;;;;5028306;28;20464;-61
2023/01/28 03:45:50;;;;;;;46.63;20.88;;;-0.50;99.90;;;;;;5028116;28;20052;-60
2023/01/28 03:48:21;;;;;;;;;;;-0.50;99.90;;;;;;5033502;28;20063;-60
2023/01/28 03:50:49;;;;;;;48.70;19.77;;;-0.50;99.90;;;;;;5023276;28;20325;-60
2023/01/28 03:53:17;;;;;;;42.35;18.67;;;-0.50;99.90;;;;;;5045215;28;20126;-61
2023/01/28 03:55:48;;;;;;;52.92;20.75;;;-0.60;99.90;;;;;;5037406;28;20056;-60
2023/01/28 03:58:15;;;;;;;47.42;20.05;;;-0.50;99.90;;;;;;5013878;28;20041;-61
2023/01/28 04:00:43;;;;;;;41.95;17.77;;;-0.50;99.90;;;;;;5011368;28;20103;-60
2023/01/28 04:03:17;;;;;;;42.85;19.45;;;-0.50;99.90;;;;;;5012736;28;20052;-60
2023/01/28 04:06:06;;;;;;;41.00;18.15;;;-0.50;99.90;;;;;;5023989;28;20052;-60
2023/01/28 04:08:58;;;;;;;42.47;16.80;;;-0.50;99.90;;;;;;5019733;28;20137;-62
2023/01/28 04:11:39;;;;;;;42.90;18.17;;;-0.60;99.90;;;;;;5009757;28;20457;-62
2023/01/28 04:14:07;;;;;;;44.08;19.02;;;-0.50;99.90;;;;;;5022420;28;20049;-62
2023/01/28 04:16:44;;;;;;;30.25;13.45;;;-0.50;99.90;;;;;;5033149;28;20052;-62
2023/01/28 04:19:12;;;;;;;;;;;-0.50;99.90;;;;;;5016385;28;20046;-62
2023/01/28 04:21:40;;;;;;;;;;;-0.50;99.90;;;;;;5013234;28;20028;-61
2023/01/28 04:24:07;;;;;;;48.03;18.80;;;-0.50;99.90;;;;;;5041815;28;19925;-62
2023/01/28 04:26:34;;;;;;;44.05;18.90;;;-0.60;99.90;;;;;;5020736;28;20450;-62
2023/01/28 04:29:01;;;;;;;41.90;18.83;;;-0.50;99.90;;;;;;5017041;28;20414;-62
2023/01/28 04:31:29;;;;;;;42.75;17.65;;;-0.50;99.90;;;;;;5012755;28;20041;-62
2023/01/28 04:34:16;;;;;;;41.83;18.67;;;-0.60;99.90;;;;;;5032731;28;20060;-62
2023/01/28 04:37:01;;;;;;;46.35;18.13;;;-0.50;99.90;;;;;;5047503;28;20135;-62
2023/01/28 04:39:42;;;;;;;44.90;19.25;;;-0.50;99.90;;;;;;5018031;28;20063;-62
2023/01/28 04:42:20;;;;;;;;;;;-0.50;99.90;;;;;;5022064;28;20136;-62
2023/01/28 04:44:56;;;;;;;48.45;19.98;;;-0.50;99.90;;;;;;5013044;28;19987;-62
2023/01/28 04:47:36;;;;;;;54.53;20.45;;;-0.50;99.90;;;;;;5030206;28;20398;-62
2023/01/28 04:50:29;;;;;;;46.00;19.15;;;-0.50;99.90;;;;;;5022590;28;20489;-62
2023/01/28 04:53:06;;;;;;;46.30;19.48;;;-0.50;99.90;;;;;;5011848;28;20046;-62
2023/01/28 04:55:56;;;;;;;44.45;19.63;;;-0.50;99.90;;;;;;5029419;28;20421;-62
2023/01/28 04:58:24;;;;;;;46.10;20.60;;;-0.50;99.90;;;;;;5011780;28;20045;-62
2023/01/28 05:00:56;;;;;;;46.33;19.73;;;-0.50;99.90;;;;;;5019899;28;20045;-62
2023/01/28 05:03:24;;;;;;;41.10;18.52;;;-0.50;99.90;;;;;;5040560;28;20045;-63
2023/01/28 05:05:51;;;;;;;48.22;20.40;;;-0.50;99.90;;;;;;5022667;28;20048;-62
2023/01/28 05:08:37;;;;;;;45.78;19.75;;;-0.50;99.90;;;;;;5011952;28;20410;-62
2023/01/28 05:11:04;;;;;;;49.17;20.60;;;-0.50;99.90;;;;;;5028888;28;20041;-62
2023/01/28 05:13:31;;;;;;;46.55;20.92;;;-0.50;99.90;;;;;;5032423;28;20041;-62
2023/01/28 05:15:58;;;;;;;43.65;18.70;;;-0.50;99.90;;;;;;5017204;28;20045;-62
2023/01/28 05:18:25;;;;;;;48.40;19.38;;;-0.50;99.90;;;;;;5010804;28;20075;-62
2023/01/28 05:21:04;;;;;;;46.65;19.33;;;-0.50;99.90;;;;;;5024546;28;20095;-62
2023/01/28 05:23:34;;;;;;;45.45;19.73;;;-0.50;99.90;;;;;;5031109;28;20533;-62
2023/01/28 05:26:01;;;;;;;;;;;-0.50;99.90;;;;;;5039048;28;20048;-62
2023/01/28 05:28:28;;;;;;;47.28;18.83;;;-0.50;99.90;;;;;;5015674;28;19983;-62
2023/01/28 05:31:01;;;;;;;52.25;21.10;;;-0.50;99.90;;;;;;5017616;28;20150;-61
2023/01/28 05:33:28;;;;;;;52.88;19.23;;;-0.50;99.90;;;;;;5031943;28;20045;-61
2023/01/28 05:35:56;;;;;;;60.60;22.38;;;-0.50;99.90;;;;;;5025751;28;20055;-62
2023/01/28 05:38:22;;;;;;;73.15;27.45;;;-0.50;99.90;;;;;;5036146;28;20064;-62
2023/01/28 05:40:50;;;;;;;72.93;25.90;;;-0.50;99.90;;;;;;5027523;28;20042;-62
2023/01/28 05:43:17;;;;;;;59.65;22.70;;;-0.50;99.90;;;;;;5014121;28;20072;-62
2023/01/28 05:45:50;;;;;;;60.22;21.60;;;-0.50;99.90;;;;;;5032898;28;20176;-62
2023/01/28 05:48:25;;;;;;;70.00;24.13;;;-0.50;99.90;;;;;;5012310;28;20049;-62
2023/01/28 05:51:14;;;;;;;55.58;21.10;;;-0.50;99.90;;;;;;5032920;28;20044;-61
2023/01/28 05:53:44;;;;;;;50.15;20.20;;;-0.60;99.90;;;;;;5040387;28;20516;-62
2023/01/28 05:56:10;;;;;;;52.38;21.30;;;-0.50;99.90;;;;;;5038195;28;20093;-61
2023/01/28 05:58:39;;;;;;;53.53;20.52;;;-0.50;99.90;;;;;;5015350;28;20057;-62
2023/01/28 06:01:06;;;;;;;49.60;19.75;;;-0.50;99.90;;;;;;5032262;28;20069;-62
2023/01/28 06:03:40;;;;;;;55.65;21.23;;;-0.60;99.90;;;;;;5014741;28;20485;-62
2023/01/28 06:06:07;;;;;;;58.40;20.75;;;-0.60;99.90;;;;;;5014917;28;20495;-62
2023/01/28 06:08:36;;;;;;;59.50;20.33;;;-0.60;99.90;;;;;;5031631;28;20762;-62
2023/01/28 06:11:02;;;;;;;51.88;20.73;;;-0.50;99.90;;;;;;5011283;28;20040;-61
2023/01/28 06:13:32;;;;;;;48.03;19.92;;;-0.50;99.90;;;;;;5027494;28;20037;-62
2023/01/28 06:16:37;;;;;;;49.28;20.20;;;-0.50;99.90;;;;;;4972062;28;20558;-62
2023/01/28 06:19:22;;;;;;;57.03;19.33;;;-0.50;99.90;;;;;;4969065;28;20089;-62
2023/01/28 06:21:49;;;;;;;35.83;12.30;;;-0.50;99.90;;;;;;4982603;28;20046;-62
2023/01/28 06:24:17;;;;;;;50.58;18.77;;;-0.50;99.90;;;;;;5013990;28;20049;-61
2023/01/28 06:26:44;;;;;;;51.67;19.45;;;-0.50;99.90;;;;;;5015473;28;20038;-61
2023/01/28 06:29:11;;;;;;;53.85;19.45;;;-0.40;99.90;;;;;;5044718;28;20456;-61
2023/01/28 06:31:38;;;;;;;53.75;18.23;;;-0.50;99.90;;;;;;5038465;28;20045;-61
2023/01/28 06:34:04;;;;;;;42.85;16.63;;;-0.50;99.90;;;;;;5029067;28;20042;-62
2023/01/28 06:36:32;;;;;;;48.75;17.30;;;-0.50;99.90;;;;;;5032816;28;20112;-62
2023/01/28 06:38:59;;;;;;;56.65;17.15;;;-0.50;99.90;;;;;;5032604;28;20049;-62
2023/01/28 06:41:25;;;;;;;46.13;16.70;;;-0.40;99.90;;;;;;5031368;28;20049;-62
2023/01/28 06:43:52;;;;;;;32.03;11.77;;;-0.40;99.90;;;;;;5032530;28;20049;-62
2023/01/28 06:46:19;;;;;;;45.05;16.67;;;-0.40;99.90;;;;;;5032187;28;20112;-62
2023/01/28 06:48:46;;;;;;;56.65;18.30;;;-0.40;99.90;;;;;;5032444;28;20052;-62
2023/01/28 06:51:12;;;;;;;52.40;17.08;;;-0.40;99.90;;;;;;5034916;28;20096;-62
2023/01/28 06:53:39;;;;;;;45.78;13.98;;;-0.40;99.90;;;;;;5028318;28;20045;-62
2023/01/28 06:56:07;;;;;;;48.50;15.32;;;-0.40;99.90;;;;;;5030198;28;20091;-62
2023/01/28 06:58:34;;;;;;;46.17;15.68;;;-0.40;99.90;;;;;;5037050;28;20053;-62
2023/01/28 07:01:01;;;;;;;50.95;17.63;;;-0.40;99.90;;;;;;5031710;28;20050;-62
2023/01/28 07:03:27;;;;;;;37.38;12.88;;;-0.40;99.90;;;;;;5031112;28;20049;-62
2023/01/28 07:05:54;;;;;;;31.15;11.60;;;-0.40;99.90;;;;;;5031528;28;20088;-62
2023/01/28 07:08:21;;;;;;;48.83;15.05;;;-0.40;99.90;;;;;;5031779;28;20088;-62
2023/01/28 07:10:48;;;;;;;56.65;16.60;;;-0.40;99.90;;;;;;5031170;28;20041;-61
2023/01/28 07:13:15;;;;;;;47.47;16.65;;;-0.40;99.90;;;;;;5031949;28;20051;-62
2023/01/28 07:15:41;;;;;;;59.03;17.48;;;-0.40;99.90;;;;;;5031330;28;20076;-62
2023/01/28 07:18:08;;;;;;;36.03;11.90;;;-0.40;99.90;;;;;;5034697;28;20388;-61
2023/01/28 07:20:35;;;;;;;47.78;15.20;;;-0.40;99.90;;;;;;5032531;28;20140;-61
2023/01/28 07:23:02;;;;;;;54.72;16.48;;;-0.40;99.90;;;;;;5013880;28;20147;-61
2023/01/28 07:25:29;;;;;;;47.63;17.00;;;-0.10;99.90;;;;;;5032855;28;20068;-62
2023/01/28 07:27:56;;;;;;;45.55;16.25;;;-0.50;99.90;;;;;;5052616;28;20045;-62
2023/01/28 07:30:23;;;;;;;45.88;15.52;;;-0.50;99.90;;;;;;5037718;28;20098;-62
2023/01/28 07:32:54;;;;;;;48.95;15.57;;;-0.50;99.90;;;;;;5033389;28;20041;-62
2023/01/28 07:35:22;;;;;;;52.13;17.27;;;-0.50;99.90;;;;;;5031003;28;20053;-61
2023/01/28 07:37:57;;;;;;;50.55;16.85;;;-0.50;99.90;;;;;;5031777;28;20037;-62
2023/01/28 07:40:25;;;;;;;43.63;15.80;;;-0.50;99.90;;;;;;5035043;28;20045;-62
2023/01/28 07:42:53;;;;;;;44.88;16.20;;;-0.50;99.90;;;;;;5043146;28;20102;-62
2023/01/28 07:45:22;;;;;;;53.00;16.52;;;-0.50;99.90;;;;;;5017890;28;20072;-62
2023/01/28 07:47:57;;;;;;;59.63;17.05;;;-0.50;99.90;;;;;;5031635;28;20103;-62
2023/01/28 07:50:25;;;;;;;47.08;17.92;;;-0.50;99.90;;;;;;5030489;28;20044;-62
2023/01/28 07:52:51;;;;;;;48.75;18.55;;;-0.50;99.90;;;;;;5030977;28;20128;-62
2023/01/28 07:55:18;;;;;;;39.88;14.57;;;-0.40;99.90;;;;;;5021207;28;20092;-62
2023/01/28 07:57:51;;;;;;;41.75;15.63;;;-0.40;99.90;;;;;;5013847;28;20462;-62
2023/01/28 08:00:19;;;;;;;58.03;20.63;;;-0.40;99.90;;;;;;5030681;28;20053;-62
2023/01/28 08:02:47;;;;;;;68.10;23.90;;;-0.40;99.90;;;;;;5030821;28;20042;-62
2023/01/28 08:05:18;;;;;;;56.60;21.10;;;-0.40;99.90;;;;;;5026805;28;20084;-62
2023/01/28 08:07:47;;;;;;;57.55;19.70;;;-0.40;99.90;;;;;;5031213;28;20100;-62
2023/01/28 08:10:15;;;;;;;56.65;19.92;;;-0.40;99.90;;;;;;5030388;28;20490;-62
2023/01/28 08:12:54;;;;;;;54.85;21.00;;;-0.40;99.90;;;;;;5029374;28;20075;-62
2023/01/28 08:15:21;;;;;;;64.07;19.60;;;-0.30;99.90;;;;;;5025582;28;20605;-62
2023/01/28 08:17:49;;;;;;;49.28;17.35;;;-0.30;99.90;;;;;;5019869;28;20041;-62
2023/01/28 08:20:16;;;;;;;47.20;17.08;;;-0.30;99.90;;;;;;5063187;22;20055;-54
2023/01/28 08:22:43;;;;;;;42.50;16.98;;;-0.30;99.90;;;;;;5117965;27;20046;-57
2023/01/28 08:25:10;;;;;;;43.85;14.60;;;-0.30;99.90;;;;;;5108736;28;20054;-54
2023/01/28 08:27:37;;;;;;;35.38;13.13;;;-0.30;99.90;;;;;;5122924;27;20043;-58
2023/01/28 08:30:04;;;;;;;52.17;17.33;;;-0.30;99.90;;;;;;5114374;27;20047;-58
2023/01/28 08:32:31;;;;;;;53.80;16.83;;;-0.20;99.90;;;;;;5103921;28;20073;-57
2023/01/28 08:34:58;;;;;;;46.75;16.83;;;-0.20;99.90;;;;;;5109665;28;20088;-57
2023/01/28 08:37:25;;;;;;;45.88;16.35;;;-0.20;99.90;;;;;;5087880;28;20051;-57
2023/01/28 08:39:52;;;;;;;49.13;18.05;;;-0.20;99.90;;;;;;5089378;28;20048;-58
2023/01/28 08:42:19;;;;;;;54.03;16.67;;;-0.20;99.90;;;;;;5097554;28;20051;-55
2023/01/28 08:44:46;;;;;;;52.40;17.77;;;-0.20;99.90;;;;;;5090481;28;20166;-54
2023/01/28 08:47:14;;;;;;;45.90;16.73;;;-0.20;99.90;;;;;;5107864;28;20059;-55
2023/01/28 08:49:40;;;;;;;50.88;16.05;;;-0.30;99.90;;;;;;5111412;28;20040;-56
2023/01/28 08:52:07;;;;;;;52.25;17.08;;;-0.30;99.90;;;;;;5095210;28;20097;-55
2023/01/28 08:54:35;;;;;;;44.28;16.98;;;-0.20;99.90;;;;;;5111168;28;20439;-58
2023/01/28 08:57:02;;;;;;;51.42;18.65;;;-0.30;99.90;;;;;;5096924;28;20431;-57
2023/01/28 08:59:29;;;;;;;50.08;17.38;;;-0.30;99.90;;;;;;5093623;28;20500;-57
2023/01/28 09:01:56;;;;;;;56.40;17.58;;;-0.20;99.90;;;;;;5113161;28;20100;-54
2023/01/28 09:04:23;;;;;;;48.85;17.73;;;-0.20;99.90;;;;;;5114914;28;20047;-58
2023/01/28 09:06:49;;;;;;;50.22;19.05;;;-0.10;99.90;;;;;;5113348;28;20047;-56
2023/01/28 09:09:16;;;;;;;46.05;16.33;;;0.00;99.90;;;;;;5113128;28;20043;-58
2023/01/28 09:11:43;;;;;;;51.67;18.02;;;0.00;99.90;;;;;;5112292;28;20078;-57
2023/01/28 09:14:10;;;;;;;46.63;16.85;;;-0.10;99.90;;;;;;5097025;28;20031;-58
2023/01/28 09:16:36;;;;;;;47.97;17.08;;;-0.10;99.90;;;;;;5101691;28;20478;-58
2023/01/28 09:19:03;;;;;;;54.30;18.13;;;-0.10;99.90;;;;;;5101199;28;20043;-56
2023/01/28 09:21:30;;;;;;;53.60;17.70;;;0.00;99.90;;;;;;5103090;28;20077;-57
2023/01/28 09:23:57;;;;;;;36.65;12.48;;;0.00;99.90;;;;;;5104163;28;20097;-56
2023/01/28 09:26:24;;;;;;;51.72;18.45;;;0.10;99.90;;;;;;5102557;28;20047;-54
2023/01/28 09:28:50;;;;;;;46.58;16.27;;;0.10;99.90;;;;;;5104860;28;20097;-56
2023/01/28 09:31:17;;;;;;;53.75;16.83;;;0.20;99.90;;;;;;5103225;28;20096;-57
2023/01/28 09:33:46;;;;;;;56.42;17.55;;;0.20;99.90;;;;;;5104798;28;20048;-56
2023/01/28 09:36:13;;;;;;;47.17;16.75;;;0.20;99.90;;;;;;5102160;28;20100;-56
2023/01/28 09:38:40;;;;;;;43.67;17.98;;;0.20;99.90;;;;;;5103391;28;20052;-56
2023/01/28 09:41:48;;;;;;;47.30;18.08;;;0.20;99.90;;;;;;5098775;28;20512;-57
2023/01/28 09:44:22;;;;;;;51.88;18.80;;;0.30;99.90;;;;;;5076595;28;20507;-57
2023/01/28 09:46:50;;;;;;;46.50;16.50;;;0.30;99.90;;;;;;5091739;28;20032;-55
2023/01/28 09:49:20;;;;;;;;;;;0.30;99.90;;;;;;5093052;28;20040;-56
2023/01/28 09:51:54;;;;;;;48.95;16.58;;;0.40;99.90;;;;;;5075280;28;20453;-57
2023/01/28 09:54:37;;;;;;;42.88;16.10;;;0.40;99.90;;;;;;5094803;28;20079;-57
2023/01/28 09:57:18;;;;;;;49.67;16.75;;;0.40;99.90;;;;;;5097672;28;20044;-56
2023/01/28 09:59:45;;;;;;;43.17;16.08;;;0.40;99.90;;;;;;5099446;28;20109;-56
2023/01/28 10:02:43;;;;;;;45.58;17.40;;;0.50;99.90;;;;;;5112631;28;20051;-56
2023/01/28 10:05:23;;;;;;;51.50;18.83;;;0.60;99.90;;;;;;5113523;28;20047;-57
2023/01/28 10:07:55;;;;;;;43.30;15.70;;;0.80;99.90;;;;;;5095404;28;20052;-57
2023/01/28 10:10:38;;;;;;;46.88;17.33;;;0.90;99.90;;;;;;5092252;28;20093;-57
2023/01/28 10:13:16;;;;;;;40.75;14.68;;;1.10;99.90;;;;;;5092819;28;20097;-57
2023/01/28 10:15:52;;;;;;;;;;;1.20;99.90;;;;;;5097297;28;20094;-57
2023/01/28 10:18:44;;;;;;;44.20;16.63;;;1.30;99.90;;;;;;5102178;28;19923;-52
2023/01/28 10:21:25;;;;;;;39.67;15.15;;;1.40;99.90;;;;;;5102780;28;20035;-56
2023/01/28 10:24:09;;;;;;;44.97;15.80;;;1.70;99.90;;;;;;5097413;28;20039;-57
2023/01/28 10:26:39;;;;;;;44.03;16.23;;;1.80;99.90;;;;;;5103107;28;20052;-57
2023/01/28 10:29:23;;;;;;;43.70;16.67;;;1.90;99.90;;;;;;5077920;28;20040;-56
2023/01/28 10:31:53;;;;;;;46.70;16.70;;;2.00;99.90;;;;;;5103114;28;20039;-57
2023/01/28 10:34:21;;;;;;;50.53;15.02;;;2.10;99.90;;;;;;5101728;28;20054;-56
2023/01/28 10:36:50;;;;;;;43.38;15.43;;;2.20;99.90;;;;;;5103716;28;20690;-58
2023/01/28 10:39:21;;;;;;;44.05;17.10;;;2.30;99.90;;;;;;5101067;28;20043;-57
2023/01/28 10:41:48;;;;;;;41.97;15.95;;;2.30;99.90;;;;;;5103171;28;20043;-57
2023/01/28 10:44:37;;;;;;;42.80;16.50;;;2.40;99.90;;;;;;5102261;28;20602;-55
2023/01/28 10:47:14;;;;;;;37.38;15.35;;;2.40;99.90;;;;;;5101561;28;20950;-55
2023/01/28 10:49:46;;;;;;;37.92;15.77;;;2.40;99.90;;;;;;5103142;28;20044;-58
2023/01/28 10:52:15;;;;;;;40.70;15.25;;;2.40;99.90;;;;;;5100201;28;20048;-56
2023/01/28 10:54:41;;;;;;;42.72;15.27;;;2.40;99.90;;;;;;5103692;28;20088;-56
2023/01/28 10:57:15;;;;;;;42.08;15.77;;;2.50;99.90;;;;;;5098310;28;20065;-54
2023/01/28 10:59:42;;;;;;;35.03;14.73;;;2.50;99.90;;;;;;5096536;28;20083;-57
2023/01/28 11:02:31;;;;;;;40.47;16.15;;;2.40;99.90;;;;;;5105111;28;20044;-56
2023/01/28 11:05:05;;;;;;;40.58;16.27;;;2.10;99.90;;;;;;5112532;28;20043;-56
2023/01/28 11:07:32;;;;;;;44.45;16.20;;;2.00;99.90;;;;;;5109293;28;20040;-56
2023/01/28 11:09:59;;;;;;;38.13;16.02;;;1.80;99.90;;;;;;5091280;28;20040;-57
2023/01/28 11:12:28;;;;;;;39.55;16.45;;;1.70;99.90;;;;;;5090721;28;20040;-56
2023/01/28 11:14:57;;;;;;;42.88;16.63;;;1.50;99.90;;;;;;5091638;28;20047;-55
2023/01/28 11:17:28;;;;;;;41.05;15.43;;;1.50;99.90;;;;;;5105399;28;20408;-57
2023/01/28 11:19:58;;;;;;;37.70;15.60;;;1.40;99.90;;;;;;5103347;28;20044;-57
2023/01/28 11:22:27;;;;;;;40.70;16.88;;;1.40;99.90;;;;;;5096547;28;20047;-55
2023/01/28 11:24:54;;;;;;;39.50;15.23;;;1.50;99.90;;;;;;5091906;28;20427;-56
2023/01/28 11:27:28;;;;;;;35.72;15.50;;;1.50;99.90;;;;;;5094547;28;20044;-57
2023/01/28 11:30:00;;;;;;;44.35;17.33;;;1.60;99.90;;;;;;5095110;28;20047;-55
2023/01/28 11:32:29;;;;;;;43.20;17.52;;;1.70;99.90;;;;;;5100010;28;20050;-56
2023/01/28 11:34:57;;;;;;;38.65;16.15;;;1.90;99.90;;;;;;5095367;28;20055;-56
2023/01/28 11:37:26;;;;;;;38.90;15.18;;;2.10;99.90;;;;;;5097415;28;20040;-57
2023/01/28 11:40:15;;;;;;;49.97;16.63;;;2.30;99.90;;;;;;5098803;28;20050;-56
2023/01/28 11:42:49;;;;;;;37.70;15.98;;;2.60;99.90;;;;;;5100275;28;20132;-56
2023/01/28 11:45:36;;;;;;;37.83;15.80;;;2.80;99.90;;;;;;5101212;28;20100;-56
2023/01/28 11:48:31;;;;;;;35.75;15.13;;;2.90;99.90;;;;;;5099238;28;20085;-55
2023/01/28 11:51:09;;;;;;;33.50;13.93;;;3.10;99.90;;;;;;5098911;28;20100;-56
2023/01/28 11:54:01;;;;;;;31.55;14.50;;;3.20;99.90;;;;;;5099037;28;20048;-57
2023/01/28 11:56:39;;;;;;;32.97;14.55;;;3.30;99.90;;;;;;5097743;28;20075;-58
2023/01/28 11:59:30;;;;;;;32.90;14.52;;;3.20;99.90;;;;;;5099197;28;20097;-58
2023/01/28 12:01:57;;;;;;;33.42;14.65;;;3.00;99.90;;;;;;5097095;28;20044;-58
2023/01/28 12:04:54;;;;;;;25.73;11.30;;;3.00;99.90;;;;;;5101279;28;20090;-55
2023/01/28 12:08:02;;;;;;;34.33;14.30;;;3.00;99.90;;;;;;5108687;28;20118;-57
2023/01/28 12:11:06;;;;;;;33.13;13.38;;;3.10;99.90;;;;;;5007851;28;20115;-58
2023/01/28 12:14:02;;;;;;;30.70;12.40;;;3.20;99.90;;;;;;5007291;28;20113;-56
2023/01/28 12:16:51;;;;;;;32.75;13.95;;;3.20;99.90;;;;;;5103968;28;20543;-57
2023/01/28 12:19:44;;;;;;;30.80;13.63;;;3.20;99.90;;;;;;5108385;28;20035;-56
2023/01/28 12:22:10;;;;;;;38.00;15.48;;;3.20;99.90;;;;;;5108425;28;20081;-56
2023/01/28 12:24:58;;;;;;;36.75;14.43;;;3.20;99.90;;;;;;5103638;28;20138;-58
2023/01/28 12:27:34;;;;;;;32.15;13.77;;;3.10;99.90;;;;;;5109664;28;20511;-56
2023/01/28 12:30:36;;;;;;;34.95;14.27;;;3.10;99.90;;;;;;5105509;28;20048;-56
2023/01/28 12:33:48;;;;;;;32.30;13.60;;;2.90;99.90;;;;;;5042524;28;20578;-56
2023/01/28 12:36:51;;;;;;;35.47;14.40;;;2.80;99.90;;;;;;5099086;28;20112;-63
2023/01/28 12:39:17;;;;;;;32.30;13.38;;;2.70;99.90;;;;;;5108187;28;20450;-61
2023/01/28 12:41:50;;;;;;;23.60;9.98;;;2.60;99.90;;;;;;5102845;28;20040;-61
2023/01/28 12:44:27;;;;;;;33.85;14.25;;;2.40;99.90;;;;;;5095331;28;20040;-60
2023/01/28 12:47:24;;;;;;;30.63;12.63;;;2.10;99.90;;;;;;5110168;28;20606;-55
2023/01/28 12:50:11;;;;;;;36.63;13.60;;;2.00;99.90;;;;;;5094103;28;20110;-61
2023/01/28 12:52:44;;;;;;;32.03;14.10;;;1.90;99.90;;;;;;5109412;28;20548;-61
2023/01/28 12:55:14;;;;;;;36.58;15.55;;;1.80;99.90;;;;;;5109585;28;20557;-60
2023/01/28 12:57:42;;;;;;;34.88;14.07;;;1.80;99.90;;;;;;5099012;28;20044;-60
2023/01/28 13:00:35;;;;;;;33.80;14.40;;;1.60;99.90;;;;;;5101574;28;20063;-61
2023/01/28 13:03:37;;;;;;;31.50;13.75;;;1.50;99.90;;;;;;5094194;28;20063;-61
2023/01/28 13:06:12;;;;;;;36.08;13.13;;;1.40;99.90;;;;;;5105170;28;20051;-61
2023/01/28 13:08:38;;;;;;;39.17;13.95;;;1.30;99.90;;;;;;5093714;28;20036;-58
2023/01/28 13:11:10;;;;;;;26.83;10.63;;;1.20;99.90;;;;;;5106950;28;20077;-59
2023/01/28 13:13:43;;;;;;;38.15;14.68;;;1.20;99.90;;;;;;5098563;28;20043;-59
2023/01/28 13:16:11;;;;;;;38.65;14.65;;;1.20;99.90;;;;;;5100780;28;20442;-58
2023/01/28 13:18:45;;;;;;;35.58;14.55;;;1.10;99.90;;;;;;5103125;28;20144;-58
2023/01/28 13:21:12;;;;;;;35.55;14.70;;;1.00;99.90;;;;;;5094001;28;20040;-59
2023/01/28 13:23:43;;;;;;;33.67;11.98;;;0.90;99.90;;;;;;5101321;28;20093;-58
2023/01/28 13:26:19;;;;;;;38.60;15.15;;;0.80;99.90;;;;;;5102670;28;20090;-59
2023/01/28 13:28:52;;;;;;;41.20;15.07;;;0.70;99.90;;;;;;5097063;28;20039;-58
2023/01/28 13:31:22;;;;;;;38.28;14.88;;;0.70;99.90;;;;;;5106283;28;20450;-58
2023/01/28 13:33:55;;;;;;;40.15;15.77;;;0.60;99.90;;;;;;5108188;28;20092;-57
2023/01/28 13:36:44;;;;;;;38.83;15.88;;;0.60;99.90;;;;;;5092294;28;20488;-58